RJSM(METAR)
06/25 14:00
METAR RJSM 250500Z 12007KT 090V150 9999 FEW030 20/14 Q1015 RMK 1CU030
A2999=
戻る
トップページへ戻る
IMOC Co,.Ltd.